sensor_id;sensor_type;location;lat;lon;timestamp;P1;durP1;ratioP1;P2;durP2;ratioP2
15764;SDS011;7983;50.744;7.086;2023-06-22T00:00:10;4.65;;;3.72;;
15764;SDS011;7983;50.744;7.086;2023-06-22T00:02:41;4.50;;;4.10;;
15764;SDS011;7983;50.744;7.086;2023-06-22T00:05:06;4.50;;;4.07;;
15764;SDS011;7983;50.744;7.086;2023-06-22T00:07:32;5.03;;;4.53;;
15764;SDS011;7983;50.744;7.086;2023-06-22T00:10:02;5.45;;;4.13;;
15764;SDS011;7983;50.744;7.086;2023-06-22T00:12:28;5.13;;;4.53;;
15764;SDS011;7983;50.744;7.086;2023-06-22T00:14:57;5.32;;;4.65;;
15764;SDS011;7983;50.744;7.086;2023-06-22T00:17:22;6.25;;;4.55;;
15764;SDS011;7983;50.744;7.086;2023-06-22T00:19:48;4.60;;;4.10;;
15764;SDS011;7983;50.744;7.086;2023-06-22T00:22:18;5.70;;;4.43;;
15764;SDS011;7983;50.744;7.086;2023-06-22T00:24:53;4.68;;;4.28;;
15764;SDS011;7983;50.744;7.086;2023-06-22T00:27:19;4.50;;;4.10;;
15764;SDS011;7983;50.744;7.086;2023-06-22T00:29:45;5.32;;;4.82;;
15764;SDS011;7983;50.744;7.086;2023-06-22T00:32:11;4.90;;;4.40;;
15764;SDS011;7983;50.744;7.086;2023-06-22T00:34:38;5.15;;;4.65;;
15764;SDS011;7983;50.744;7.086;2023-06-22T00:37:04;4.75;;;4.28;;
15764;SDS011;7983;50.744;7.086;2023-06-22T00:39:32;4.35;;;3.95;;
15764;SDS011;7983;50.744;7.086;2023-06-22T00:42:01;4.95;;;4.45;;
15764;SDS011;7983;50.744;7.086;2023-06-22T00:44:31;8.43;;;4.15;;
15764;SDS011;7983;50.744;7.086;2023-06-22T00:46:57;5.05;;;4.43;;
15764;SDS011;7983;50.744;7.086;2023-06-22T00:49:25;5.55;;;4.57;;
15764;SDS011;7983;50.744;7.086;2023-06-22T00:51:53;5.00;;;4.30;;
15764;SDS011;7983;50.744;7.086;2023-06-22T00:54:21;4.53;;;4.13;;
15764;SDS011;7983;50.744;7.086;2023-06-22T00:56:50;4.55;;;4.15;;
15764;SDS011;7983;50.744;7.086;2023-06-22T00:59:21;4.95;;;4.45;;
15764;SDS011;7983;50.744;7.086;2023-06-22T01:01:47;5.28;;;4.63;;
15764;SDS011;7983;50.744;7.086;2023-06-22T01:04:12;4.97;;;4.47;;
15764;SDS011;7983;50.744;7.086;2023-06-22T01:06:41;4.72;;;4.32;;
15764;SDS011;7983;50.744;7.086;2023-06-22T01:09:15;5.50;;;4.18;;
15764;SDS011;7983;50.744;7.086;2023-06-22T01:11:53;5.13;;;4.63;;
15764;SDS011;7983;50.744;7.086;2023-06-22T01:14:31;4.90;;;4.50;;
15764;SDS011;7983;50.744;7.086;2023-06-22T01:17:12;4.43;;;4.03;;
15764;SDS011;7983;50.744;7.086;2023-06-22T01:22:17;4.47;;;4.07;;
15764;SDS011;7983;50.744;7.086;2023-06-22T01:30:10;4.68;;;4.28;;
15764;SDS011;7983;50.744;7.086;2023-06-22T01:32:38;4.07;;;3.75;;
15764;SDS011;7983;50.744;7.086;2023-06-22T01:35:08;5.80;;;4.22;;
15764;SDS011;7983;50.744;7.086;2023-06-22T01:37:36;4.88;;;4.38;;
15764;SDS011;7983;50.744;7.086;2023-06-22T01:40:03;4.70;;;4.28;;
15764;SDS011;7983;50.744;7.086;2023-06-22T01:42:33;5.13;;;3.88;;
15764;SDS011;7983;50.744;7.086;2023-06-22T01:45:02;4.97;;;4.47;;
15764;SDS011;7983;50.744;7.086;2023-06-22T01:47:31;4.88;;;4.38;;
15764;SDS011;7983;50.744;7.086;2023-06-22T01:50:01;5.25;;;4.20;;
15764;SDS011;7983;50.744;7.086;2023-06-22T01:52:29;5.40;;;4.53;;
15764;SDS011;7983;50.744;7.086;2023-06-22T01:54:57;5.10;;;4.57;;
15764;SDS011;7983;50.744;7.086;2023-06-22T01:57:23;6.20;;;4.90;;
15764;SDS011;7983;50.744;7.086;2023-06-22T02:00:00;5.82;;;4.22;;
15764;SDS011;7983;50.744;7.086;2023-06-22T02:03:16;4.72;;;4.32;;
15764;SDS011;7983;50.744;7.086;2023-06-22T02:05:23;5.40;;;4.43;;
15764;SDS011;7983;50.744;7.086;2023-06-22T02:10:40;4.93;;;4.43;;
15764;SDS011;7983;50.744;7.086;2023-06-22T02:13:07;4.78;;;4.28;;
15764;SDS011;7983;50.744;7.086;2023-06-22T02:15:34;4.55;;;4.13;;
15764;SDS011;7983;50.744;7.086;2023-06-22T02:18:00;4.65;;;4.25;;
15764;SDS011;7983;50.744;7.086;2023-06-22T02:20:26;4.55;;;4.03;;
15764;SDS011;7983;50.744;7.086;2023-06-22T02:22:54;5.10;;;4.60;;
15764;SDS011;7983;50.744;7.086;2023-06-22T02:25:19;4.97;;;4.57;;
15764;SDS011;7983;50.744;7.086;2023-06-22T02:27:48;6.07;;;4.18;;
15764;SDS011;7983;50.744;7.086;2023-06-22T02:30:16;4.60;;;4.20;;
15764;SDS011;7983;50.744;7.086;2023-06-22T02:32:44;4.75;;;4.35;;
15764;SDS011;7983;50.744;7.086;2023-06-22T02:35:10;5.00;;;4.50;;
15764;SDS011;7983;50.744;7.086;2023-06-22T02:37:41;5.22;;;4.47;;
15764;SDS011;7983;50.744;7.086;2023-06-22T02:40:14;4.55;;;4.15;;
15764;SDS011;7983;50.744;7.086;2023-06-22T02:42:40;5.07;;;4.57;;
15764;SDS011;7983;50.744;7.086;2023-06-22T02:45:06;4.65;;;4.22;;
15764;SDS011;7983;50.744;7.086;2023-06-22T02:47:34;4.53;;;4.13;;
15764;SDS011;7983;50.744;7.086;2023-06-22T02:50:00;4.93;;;4.45;;
15764;SDS011;7983;50.744;7.086;2023-06-22T02:52:26;4.75;;;4.35;;
15764;SDS011;7983;50.744;7.086;2023-06-22T02:54:52;4.95;;;4.50;;
15764;SDS011;7983;50.744;7.086;2023-06-22T02:57:17;6.95;;;4.75;;
15764;SDS011;7983;50.744;7.086;2023-06-22T02:59:43;5.03;;;4.53;;
15764;SDS011;7983;50.744;7.086;2023-06-22T03:02:09;4.40;;;4.00;;
15764;SDS011;7983;50.744;7.086;2023-06-22T03:04:37;4.97;;;4.10;;
15764;SDS011;7983;50.744;7.086;2023-06-22T03:07:03;4.63;;;4.22;;
15764;SDS011;7983;50.744;7.086;2023-06-22T03:09:29;4.22;;;3.83;;
15764;SDS011;7983;50.744;7.086;2023-06-22T03:11:57;5.03;;;4.10;;
15764;SDS011;7983;50.744;7.086;2023-06-22T03:14:27;6.88;;;4.40;;
15764;SDS011;7983;50.744;7.086;2023-06-22T03:16:54;8.98;;;4.13;;
15764;SDS011;7983;50.744;7.086;2023-06-22T03:19:28;5.97;;;4.32;;
15764;SDS011;7983;50.744;7.086;2023-06-22T03:21:56;4.15;;;3.75;;
15764;SDS011;7983;50.744;7.086;2023-06-22T03:24:22;4.38;;;3.53;;
15764;SDS011;7983;50.744;7.086;2023-06-22T03:26:48;4.35;;;3.88;;
15764;SDS011;7983;50.744;7.086;2023-06-22T03:29:15;3.78;;;3.42;;
15764;SDS011;7983;50.744;7.086;2023-06-22T03:31:43;4.60;;;4.10;;
15764;SDS011;7983;50.744;7.086;2023-06-22T03:34:11;6.85;;;4.50;;
15764;SDS011;7983;50.744;7.086;2023-06-22T03:36:37;5.47;;;3.92;;
15764;SDS011;7983;50.744;7.086;2023-06-22T03:39:05;4.22;;;3.83;;
15764;SDS011;7983;50.744;7.086;2023-06-22T03:41:32;6.18;;;4.35;;
15764;SDS011;7983;50.744;7.086;2023-06-22T03:43:58;4.82;;;4.32;;
15764;SDS011;7983;50.744;7.086;2023-06-22T03:46:24;6.25;;;5.03;;
15764;SDS011;7983;50.744;7.086;2023-06-22T03:48:52;4.78;;;4.30;;
15764;SDS011;7983;50.744;7.086;2023-06-22T03:51:17;5.43;;;4.28;;
15764;SDS011;7983;50.744;7.086;2023-06-22T03:53:48;4.60;;;4.20;;
15764;SDS011;7983;50.744;7.086;2023-06-22T03:56:15;4.97;;;4.47;;
15764;SDS011;7983;50.744;7.086;2023-06-22T03:58:45;4.82;;;4.32;;
15764;SDS011;7983;50.744;7.086;2023-06-22T04:01:11;7.20;;;4.60;;
15764;SDS011;7983;50.744;7.086;2023-06-22T04:03:41;5.22;;;4.38;;
15764;SDS011;7983;50.744;7.086;2023-06-22T04:06:06;19.67;;;16.90;;
15764;SDS011;7983;50.744;7.086;2023-06-22T04:08:35;11.65;;;10.50;;
15764;SDS011;7983;50.744;7.086;2023-06-22T04:11:02;8.43;;;7.63;;
15764;SDS011;7983;50.744;7.086;2023-06-22T04:13:28;9.50;;;6.43;;
15764;SDS011;7983;50.744;7.086;2023-06-22T04:15:56;6.07;;;5.40;;
15764;SDS011;7983;50.744;7.086;2023-06-22T04:18:21;5.38;;;4.90;;
15764;SDS011;7983;50.744;7.086;2023-06-22T04:20:47;5.90;;;5.30;;
15764;SDS011;7983;50.744;7.086;2023-06-22T04:23:13;5.68;;;5.10;;
15764;SDS011;7983;50.744;7.086;2023-06-22T04:25:39;5.53;;;4.70;;
15764;SDS011;7983;50.744;7.086;2023-06-22T04:28:07;5.45;;;4.95;;
15764;SDS011;7983;50.744;7.086;2023-06-22T04:30:37;9.02;;;6.65;;
15764;SDS011;7983;50.744;7.086;2023-06-22T04:33:11;6.03;;;5.43;;
15764;SDS011;7983;50.744;7.086;2023-06-22T04:35:40;5.57;;;5.00;;
15764;SDS011;7983;50.744;7.086;2023-06-22T04:38:06;6.65;;;5.20;;
15764;SDS011;7983;50.744;7.086;2023-06-22T04:40:32;6.07;;;5.35;;
15764;SDS011;7983;50.744;7.086;2023-06-22T04:42:58;5.60;;;5.00;;
15764;SDS011;7983;50.744;7.086;2023-06-22T04:45:27;5.70;;;4.80;;
15764;SDS011;7983;50.744;7.086;2023-06-22T04:47:56;6.13;;;5.13;;
15764;SDS011;7983;50.744;7.086;2023-06-22T04:50:22;5.80;;;5.00;;
15764;SDS011;7983;50.744;7.086;2023-06-22T04:52:48;5.90;;;5.30;;
15764;SDS011;7983;50.744;7.086;2023-06-22T04:55:18;7.45;;;5.38;;
15764;SDS011;7983;50.744;7.086;2023-06-22T04:57:48;5.95;;;5.18;;
15764;SDS011;7983;50.744;7.086;2023-06-22T05:00:17;4.90;;;4.50;;
15764;SDS011;7983;50.744;7.086;2023-06-22T05:02:45;5.13;;;4.65;;
15764;SDS011;7983;50.744;7.086;2023-06-22T05:05:11;7.15;;;5.13;;
15764;SDS011;7983;50.744;7.086;2023-06-22T05:07:45;5.60;;;5.10;;
15764;SDS011;7983;50.744;7.086;2023-06-22T05:10:13;6.30;;;5.45;;
15764;SDS011;7983;50.744;7.086;2023-06-22T05:12:40;5.65;;;5.10;;
15764;SDS011;7983;50.744;7.086;2023-06-22T05:15:07;5.70;;;5.05;;
15764;SDS011;7983;50.744;7.086;2023-06-22T05:17:34;5.57;;;5.07;;
15764;SDS011;7983;50.744;7.086;2023-06-22T05:20:06;5.88;;;5.18;;
15764;SDS011;7983;50.744;7.086;2023-06-22T05:22:35;6.18;;;4.90;;
15764;SDS011;7983;50.744;7.086;2023-06-22T05:25:00;5.78;;;5.10;;
15764;SDS011;7983;50.744;7.086;2023-06-22T05:27:26;6.47;;;5.32;;
15764;SDS011;7983;50.744;7.086;2023-06-22T05:29:54;7.00;;;5.38;;
15764;SDS011;7983;50.744;7.086;2023-06-22T05:32:22;6.18;;;5.47;;
15764;SDS011;7983;50.744;7.086;2023-06-22T05:34:47;6.40;;;5.72;;
15764;SDS011;7983;50.744;7.086;2023-06-22T05:37:13;5.88;;;5.28;;
15764;SDS011;7983;50.744;7.086;2023-06-22T05:39:41;5.78;;;5.18;;
15764;SDS011;7983;50.744;7.086;2023-06-22T05:42:09;5.43;;;4.93;;
15764;SDS011;7983;50.744;7.086;2023-06-22T05:44:34;6.13;;;5.15;;
15764;SDS011;7983;50.744;7.086;2023-06-22T05:47:00;5.57;;;5.05;;
15764;SDS011;7983;50.744;7.086;2023-06-22T05:49:26;5.65;;;5.05;;
15764;SDS011;7983;50.744;7.086;2023-06-22T05:51:57;6.35;;;5.18;;
15764;SDS011;7983;50.744;7.086;2023-06-22T05:54:27;6.30;;;5.28;;
15764;SDS011;7983;50.744;7.086;2023-06-22T05:56:53;7.45;;;5.20;;
15764;SDS011;7983;50.744;7.086;2023-06-22T05:59:19;7.05;;;5.78;;
15764;SDS011;7983;50.744;7.086;2023-06-22T06:01:44;6.10;;;5.50;;
15764;SDS011;7983;50.744;7.086;2023-06-22T06:04:14;6.18;;;5.57;;
15764;SDS011;7983;50.744;7.086;2023-06-22T06:06:43;6.13;;;5.53;;
15764;SDS011;7983;50.744;7.086;2023-06-22T06:09:09;6.35;;;5.43;;
15764;SDS011;7983;50.744;7.086;2023-06-22T06:11:36;6.97;;;5.40;;
15764;SDS011;7983;50.744;7.086;2023-06-22T06:14:02;6.60;;;5.25;;
15764;SDS011;7983;50.744;7.086;2023-06-22T06:16:28;5.55;;;5.05;;
15764;SDS011;7983;50.744;7.086;2023-06-22T06:18:58;7.85;;;5.35;;
15764;SDS011;7983;50.744;7.086;2023-06-22T06:21:24;6.30;;;5.70;;
15764;SDS011;7983;50.744;7.086;2023-06-22T06:23:49;5.93;;;5.40;;
15764;SDS011;7983;50.744;7.086;2023-06-22T06:26:15;6.43;;;5.82;;
15764;SDS011;7983;50.744;7.086;2023-06-22T06:28:48;7.78;;;4.90;;
15764;SDS011;7983;50.744;7.086;2023-06-22T06:31:16;6.28;;;5.53;;
15764;SDS011;7983;50.744;7.086;2023-06-22T06:33:42;5.95;;;5.25;;
15764;SDS011;7983;50.744;7.086;2023-06-22T06:36:08;5.95;;;5.35;;
15764;SDS011;7983;50.744;7.086;2023-06-22T06:38:36;5.88;;;5.15;;
15764;SDS011;7983;50.744;7.086;2023-06-22T06:41:04;5.97;;;5.32;;
15764;SDS011;7983;50.744;7.086;2023-06-22T06:43:29;7.05;;;6.00;;
15764;SDS011;7983;50.744;7.086;2023-06-22T06:45:55;5.72;;;5.22;;
15764;SDS011;7983;50.744;7.086;2023-06-22T06:48:23;6.32;;;5.45;;
15764;SDS011;7983;50.744;7.086;2023-06-22T06:50:54;6.80;;;5.45;;
15764;SDS011;7983;50.744;7.086;2023-06-22T06:53:22;7.43;;;5.80;;
15764;SDS011;7983;50.744;7.086;2023-06-22T06:55:49;6.38;;;5.78;;
15764;SDS011;7983;50.744;7.086;2023-06-22T06:58:15;6.07;;;5.53;;
15764;SDS011;7983;50.744;7.086;2023-06-22T07:00:41;6.25;;;5.60;;
15764;SDS011;7983;50.744;7.086;2023-06-22T07:03:09;5.95;;;5.40;;
15764;SDS011;7983;50.744;7.086;2023-06-22T07:05:35;6.38;;;5.78;;
15764;SDS011;7983;50.744;7.086;2023-06-22T07:08:01;6.50;;;5.85;;
15764;SDS011;7983;50.744;7.086;2023-06-22T07:10:27;6.72;;;6.07;;
15764;SDS011;7983;50.744;7.086;2023-06-22T07:12:53;6.55;;;5.95;;
15764;SDS011;7983;50.744;7.086;2023-06-22T07:15:21;6.45;;;5.85;;
15764;SDS011;7983;50.744;7.086;2023-06-22T07:17:47;5.90;;;5.30;;
15764;SDS011;7983;50.744;7.086;2023-06-22T07:20:15;6.18;;;5.55;;
15764;SDS011;7983;50.744;7.086;2023-06-22T07:22:44;5.85;;;5.35;;
15764;SDS011;7983;50.744;7.086;2023-06-22T07:25:13;6.00;;;5.47;;
15764;SDS011;7983;50.744;7.086;2023-06-22T07:27:56;6.00;;;5.40;;
15764;SDS011;7983;50.744;7.086;2023-06-22T07:30:26;5.20;;;4.68;;
15764;SDS011;7983;50.744;7.086;2023-06-22T07:32:52;7.40;;;5.90;;
15764;SDS011;7983;50.744;7.086;2023-06-22T07:35:18;5.90;;;5.30;;
15764;SDS011;7983;50.744;7.086;2023-06-22T07:37:43;5.82;;;5.22;;
15764;SDS011;7983;50.744;7.086;2023-06-22T07:40:11;5.60;;;5.10;;
15764;SDS011;7983;50.744;7.086;2023-06-22T07:42:37;6.00;;;5.40;;
15764;SDS011;7983;50.744;7.086;2023-06-22T07:45:03;6.85;;;5.60;;
15764;SDS011;7983;50.744;7.086;2023-06-22T07:47:33;5.57;;;5.03;;
15764;SDS011;7983;50.744;7.086;2023-06-22T07:50:00;6.25;;;5.00;;
15764;SDS011;7983;50.744;7.086;2023-06-22T07:52:29;5.78;;;5.28;;
15764;SDS011;7983;50.744;7.086;2023-06-22T07:54:58;5.65;;;5.15;;
15764;SDS011;7983;50.744;7.086;2023-06-22T07:57:24;5.50;;;5.00;;
15764;SDS011;7983;50.744;7.086;2023-06-22T07:59:57;6.00;;;5.35;;
15764;SDS011;7983;50.744;7.086;2023-06-22T08:02:25;5.60;;;5.10;;
15764;SDS011;7983;50.744;7.086;2023-06-22T08:04:51;5.88;;;5.38;;
15764;SDS011;7983;50.744;7.086;2023-06-22T08:07:17;5.50;;;5.00;;
15764;SDS011;7983;50.744;7.086;2023-06-22T08:09:48;5.55;;;4.97;;
15764;SDS011;7983;50.744;7.086;2023-06-22T08:12:14;5.90;;;4.72;;
15764;SDS011;7983;50.744;7.086;2023-06-22T08:14:41;5.20;;;4.70;;
15764;SDS011;7983;50.744;7.086;2023-06-22T08:17:10;5.95;;;4.97;;
15764;SDS011;7983;50.744;7.086;2023-06-22T08:19:36;5.80;;;5.30;;
15764;SDS011;7983;50.744;7.086;2023-06-22T08:22:02;6.05;;;5.45;;
15764;SDS011;7983;50.744;7.086;2023-06-22T08:24:31;5.72;;;5.20;;
15764;SDS011;7983;50.744;7.086;2023-06-22T08:26:57;5.68;;;5.18;;
15764;SDS011;7983;50.744;7.086;2023-06-22T08:29:25;6.40;;;5.18;;
15764;SDS011;7983;50.744;7.086;2023-06-22T08:31:55;6.32;;;5.60;;
15764;SDS011;7983;50.744;7.086;2023-06-22T08:34:20;6.90;;;5.38;;
15764;SDS011;7983;50.744;7.086;2023-06-22T08:36:50;5.95;;;5.35;;
15764;SDS011;7983;50.744;7.086;2023-06-22T08:39:18;6.35;;;5.72;;
15764;SDS011;7983;50.744;7.086;2023-06-22T08:41:47;6.70;;;5.53;;
15764;SDS011;7983;50.744;7.086;2023-06-22T08:44:18;6.03;;;5.43;;
15764;SDS011;7983;50.744;7.086;2023-06-22T08:46:46;6.93;;;5.47;;
15764;SDS011;7983;50.744;7.086;2023-06-22T08:49:12;5.85;;;5.25;;
15764;SDS011;7983;50.744;7.086;2023-06-22T08:51:37;5.55;;;5.05;;
15764;SDS011;7983;50.744;7.086;2023-06-22T08:54:09;5.68;;;5.18;;
15764;SDS011;7983;50.744;7.086;2023-06-22T08:56:35;5.50;;;5.00;;
15764;SDS011;7983;50.744;7.086;2023-06-22T08:59:03;5.40;;;4.88;;
15764;SDS011;7983;50.744;7.086;2023-06-22T09:01:35;5.93;;;5.40;;
15764;SDS011;7983;50.744;7.086;2023-06-22T09:04:00;5.57;;;5.03;;
15764;SDS011;7983;50.744;7.086;2023-06-22T09:06:31;5.78;;;5.15;;
15764;SDS011;7983;50.744;7.086;2023-06-22T09:08:57;5.90;;;5.30;;
15764;SDS011;7983;50.744;7.086;2023-06-22T09:11:24;5.75;;;5.25;;
15764;SDS011;7983;50.744;7.086;2023-06-22T09:13:50;5.40;;;4.90;;
15764;SDS011;7983;50.744;7.086;2023-06-22T09:16:18;5.93;;;5.32;;
15764;SDS011;7983;50.744;7.086;2023-06-22T09:18:46;6.00;;;5.40;;
15764;SDS011;7983;50.744;7.086;2023-06-22T09:21:12;6.00;;;5.40;;
15764;SDS011;7983;50.744;7.086;2023-06-22T09:23:40;7.13;;;5.53;;
15764;SDS011;7983;50.744;7.086;2023-06-22T09:26:08;5.40;;;4.95;;
15764;SDS011;7983;50.744;7.086;2023-06-22T09:28:34;5.75;;;5.25;;
15764;SDS011;7983;50.744;7.086;2023-06-22T09:31:00;5.80;;;5.20;;
15764;SDS011;7983;50.744;7.086;2023-06-22T09:33:26;5.55;;;5.05;;
15764;SDS011;7983;50.744;7.086;2023-06-22T09:35:51;5.68;;;5.13;;
15764;SDS011;7983;50.744;7.086;2023-06-22T09:38:17;5.72;;;5.20;;
15764;SDS011;7983;50.744;7.086;2023-06-22T09:40:43;5.85;;;5.35;;
15764;SDS011;7983;50.744;7.086;2023-06-22T09:43:11;6.03;;;5.47;;
15764;SDS011;7983;50.744;7.086;2023-06-22T09:45:37;5.90;;;5.30;;
15764;SDS011;7983;50.744;7.086;2023-06-22T09:48:05;5.68;;;5.18;;
15764;SDS011;7983;50.744;7.086;2023-06-22T09:50:31;5.82;;;5.32;;
15764;SDS011;7983;50.744;7.086;2023-06-22T09:52:56;9.40;;;5.57;;
15764;SDS011;7983;50.744;7.086;2023-06-22T09:55:24;5.95;;;5.00;;
15764;SDS011;7983;50.744;7.086;2023-06-22T09:57:52;5.40;;;4.90;;
15764;SDS011;7983;50.744;7.086;2023-06-22T10:00:20;5.70;;;5.20;;
15764;SDS011;7983;50.744;7.086;2023-06-22T10:02:48;5.30;;;4.80;;
15764;SDS011;7983;50.744;7.086;2023-06-22T10:05:13;5.72;;;5.18;;
15764;SDS011;7983;50.744;7.086;2023-06-22T10:07:42;5.55;;;5.13;;
15764;SDS011;7983;50.744;7.086;2023-06-22T10:10:08;5.65;;;5.15;;
15764;SDS011;7983;50.744;7.086;2023-06-22T10:12:35;6.30;;;5.70;;
15764;SDS011;7983;50.744;7.086;2023-06-22T10:15:00;6.07;;;5.47;;
15764;SDS011;7983;50.744;7.086;2023-06-22T10:17:28;5.68;;;5.13;;
15764;SDS011;7983;50.744;7.086;2023-06-22T10:19:54;6.20;;;5.50;;
15764;SDS011;7983;50.744;7.086;2023-06-22T10:22:22;6.70;;;5.72;;
15764;SDS011;7983;50.744;7.086;2023-06-22T10:24:48;6.18;;;5.57;;
15764;SDS011;7983;50.744;7.086;2023-06-22T10:27:13;5.70;;;5.20;;
15764;SDS011;7983;50.744;7.086;2023-06-22T10:29:39;5.95;;;5.38;;
15764;SDS011;7983;50.744;7.086;2023-06-22T10:32:06;5.75;;;5.25;;
15764;SDS011;7983;50.744;7.086;2023-06-22T10:34:32;5.90;;;5.40;;
15764;SDS011;7983;50.744;7.086;2023-06-22T10:36:57;6.80;;;5.15;;
15764;SDS011;7983;50.744;7.086;2023-06-22T10:39:25;7.15;;;5.93;;
15764;SDS011;7983;50.744;7.086;2023-06-22T10:41:53;6.28;;;5.53;;
15764;SDS011;7983;50.744;7.086;2023-06-22T10:44:20;6.95;;;6.15;;
15764;SDS011;7983;50.744;7.086;2023-06-22T10:46:46;6.95;;;5.85;;
15764;SDS011;7983;50.744;7.086;2023-06-22T10:49:12;9.35;;;6.72;;
15764;SDS011;7983;50.744;7.086;2023-06-22T10:51:39;7.50;;;6.55;;
15764;SDS011;7983;50.744;7.086;2023-06-22T10:54:06;6.90;;;6.20;;
15764;SDS011;7983;50.744;7.086;2023-06-22T10:56:32;8.45;;;7.63;;
15764;SDS011;7983;50.744;7.086;2023-06-22T10:58:58;8.55;;;7.65;;
15764;SDS011;7983;50.744;7.086;2023-06-22T11:01:26;9.27;;;7.63;;
15764;SDS011;7983;50.744;7.086;2023-06-22T11:03:56;8.60;;;7.75;;
15764;SDS011;7983;50.744;7.086;2023-06-22T11:06:22;8.43;;;7.60;;
15764;SDS011;7983;50.744;7.086;2023-06-22T11:08:47;8.00;;;7.28;;
15764;SDS011;7983;50.744;7.086;2023-06-22T11:11:15;7.50;;;6.80;;
15764;SDS011;7983;50.744;7.086;2023-06-22T11:13:49;7.43;;;6.65;;
15764;SDS011;7983;50.744;7.086;2023-06-22T11:16:15;7.40;;;6.65;;
15764;SDS011;7983;50.744;7.086;2023-06-22T11:18:42;7.85;;;7.05;;
15764;SDS011;7983;50.744;7.086;2023-06-22T11:21:10;8.55;;;7.65;;
15764;SDS011;7983;50.744;7.086;2023-06-22T11:23:36;9.55;;;7.70;;
15764;SDS011;7983;50.744;7.086;2023-06-22T11:26:04;8.57;;;7.68;;
15764;SDS011;7983;50.744;7.086;2023-06-22T11:28:29;9.52;;;7.93;;
15764;SDS011;7983;50.744;7.086;2023-06-22T11:30:55;12.98;;;7.82;;
15764;SDS011;7983;50.744;7.086;2023-06-22T11:33:21;9.18;;;7.80;;
15764;SDS011;7983;50.744;7.086;2023-06-22T11:35:46;9.73;;;7.97;;
15764;SDS011;7983;50.744;7.086;2023-06-22T11:38:14;8.60;;;7.80;;
15764;SDS011;7983;50.744;7.086;2023-06-22T11:40:40;9.15;;;8.25;;
15764;SDS011;7983;50.744;7.086;2023-06-22T11:43:05;8.68;;;7.88;;
15764;SDS011;7983;50.744;7.086;2023-06-22T11:45:31;9.18;;;8.35;;
15764;SDS011;7983;50.744;7.086;2023-06-22T11:47:59;10.32;;;8.52;;
15764;SDS011;7983;50.744;7.086;2023-06-22T11:50:24;9.27;;;8.35;;
15764;SDS011;7983;50.744;7.086;2023-06-22T11:52:50;9.90;;;9.00;;
15764;SDS011;7983;50.744;7.086;2023-06-22T11:55:17;9.07;;;8.18;;
15764;SDS011;7983;50.744;7.086;2023-06-22T11:57:54;8.65;;;7.85;;
15764;SDS011;7983;50.744;7.086;2023-06-22T12:00:21;9.50;;;8.13;;
15764;SDS011;7983;50.744;7.086;2023-06-22T12:02:49;8.40;;;7.60;;
15764;SDS011;7983;50.744;7.086;2023-06-22T12:05:21;8.73;;;7.93;;
15764;SDS011;7983;50.744;7.086;2023-06-22T12:07:50;9.00;;;8.10;;
15764;SDS011;7983;50.744;7.086;2023-06-22T12:10:17;8.70;;;7.90;;
15764;SDS011;7983;50.744;7.086;2023-06-22T12:12:43;8.82;;;7.97;;
15764;SDS011;7983;50.744;7.086;2023-06-22T12:15:09;8.57;;;7.78;;
15764;SDS011;7983;50.744;7.086;2023-06-22T12:17:38;8.52;;;7.72;;
15764;SDS011;7983;50.744;7.086;2023-06-22T12:20:04;8.70;;;7.88;;
15764;SDS011;7983;50.744;7.086;2023-06-22T12:22:33;10.00;;;8.20;;
15764;SDS011;7983;50.744;7.086;2023-06-22T12:25:00;9.18;;;8.30;;
15764;SDS011;7983;50.744;7.086;2023-06-22T12:27:26;9.05;;;8.25;;
15764;SDS011;7983;50.744;7.086;2023-06-22T12:29:54;14.00;;;7.47;;
15764;SDS011;7983;50.744;7.086;2023-06-22T12:32:20;8.27;;;7.57;;
15764;SDS011;7983;50.744;7.086;2023-06-22T12:34:45;7.85;;;7.15;;
15764;SDS011;7983;50.744;7.086;2023-06-22T12:37:11;6.95;;;6.32;;
15764;SDS011;7983;50.744;7.086;2023-06-22T12:39:39;6.40;;;5.80;;
15764;SDS011;7983;50.744;7.086;2023-06-22T12:42:05;6.05;;;5.55;;
15764;SDS011;7983;50.744;7.086;2023-06-22T12:44:37;5.60;;;5.10;;
15764;SDS011;7983;50.744;7.086;2023-06-22T12:47:06;4.97;;;4.47;;
15764;SDS011;7983;50.744;7.086;2023-06-22T12:49:35;5.20;;;4.70;;
15764;SDS011;7983;50.744;7.086;2023-06-22T12:52:01;4.97;;;4.47;;
15764;SDS011;7983;50.744;7.086;2023-06-22T12:54:27;4.97;;;4.32;;
15764;SDS011;7983;50.744;7.086;2023-06-22T12:57:00;5.22;;;4.30;;
15764;SDS011;7983;50.744;7.086;2023-06-22T12:59:26;4.82;;;4.35;;
15764;SDS011;7983;50.744;7.086;2023-06-22T13:01:54;4.47;;;4.07;;
15764;SDS011;7983;50.744;7.086;2023-06-22T13:04:22;4.80;;;4.35;;
15764;SDS011;7983;50.744;7.086;2023-06-22T13:06:47;5.30;;;4.80;;
15764;SDS011;7983;50.744;7.086;2023-06-22T13:09:14;6.15;;;4.43;;
15764;SDS011;7983;50.744;7.086;2023-06-22T13:11:40;5.47;;;4.97;;
15764;SDS011;7983;50.744;7.086;2023-06-22T13:14:09;5.13;;;4.72;;
15764;SDS011;7983;50.744;7.086;2023-06-22T13:16:37;4.72;;;4.32;;
15764;SDS011;7983;50.744;7.086;2023-06-22T13:19:03;4.88;;;4.47;;
15764;SDS011;7983;50.744;7.086;2023-06-22T13:21:29;4.75;;;4.30;;
15764;SDS011;7983;50.744;7.086;2023-06-22T13:23:55;4.57;;;4.18;;
15764;SDS011;7983;50.744;7.086;2023-06-22T13:26:21;4.22;;;3.83;;
15764;SDS011;7983;50.744;7.086;2023-06-22T13:28:47;3.25;;;3.00;;
15764;SDS011;7983;50.744;7.086;2023-06-22T13:31:15;3.65;;;2.72;;
15764;SDS011;7983;50.744;7.086;2023-06-22T13:33:40;3.10;;;2.80;;
15764;SDS011;7983;50.744;7.086;2023-06-22T13:36:06;2.47;;;2.28;;
15764;SDS011;7983;50.744;7.086;2023-06-22T13:38:35;2.25;;;2.05;;
15764;SDS011;7983;50.744;7.086;2023-06-22T13:41:03;2.63;;;2.42;;
15764;SDS011;7983;50.744;7.086;2023-06-22T13:43:31;3.08;;;2.88;;
15764;SDS011;7983;50.744;7.086;2023-06-22T13:45:57;2.75;;;2.55;;
15764;SDS011;7983;50.744;7.086;2023-06-22T13:48:23;3.10;;;2.80;;
15764;SDS011;7983;50.744;7.086;2023-06-22T13:50:53;2.63;;;2.42;;
15764;SDS011;7983;50.744;7.086;2023-06-22T13:53:19;3.28;;;2.83;;
15764;SDS011;7983;50.744;7.086;2023-06-22T13:55:47;3.88;;;3.00;;
15764;SDS011;7983;50.744;7.086;2023-06-22T13:58:17;4.25;;;3.20;;
15764;SDS011;7983;50.744;7.086;2023-06-22T14:00:47;3.78;;;3.40;;
15764;SDS011;7983;50.744;7.086;2023-06-22T14:03:15;3.95;;;3.65;;
15764;SDS011;7983;50.744;7.086;2023-06-22T14:05:41;4.20;;;3.80;;
15764;SDS011;7983;50.744;7.086;2023-06-22T14:08:07;5.30;;;4.00;;
15764;SDS011;7983;50.744;7.086;2023-06-22T14:10:34;4.22;;;3.83;;
15764;SDS011;7983;50.744;7.086;2023-06-22T14:13:02;3.97;;;3.58;;
15764;SDS011;7983;50.744;7.086;2023-06-22T14:15:30;4.30;;;3.90;;
15764;SDS011;7983;50.744;7.086;2023-06-22T14:17:57;4.55;;;3.78;;
15764;SDS011;7983;50.744;7.086;2023-06-22T14:20:22;3.83;;;3.53;;
15764;SDS011;7983;50.744;7.086;2023-06-22T14:22:48;3.90;;;3.60;;
15764;SDS011;7983;50.744;7.086;2023-06-22T14:25:13;4.28;;;3.88;;
15764;SDS011;7983;50.744;7.086;2023-06-22T14:27:39;4.57;;;4.18;;
15764;SDS011;7983;50.744;7.086;2023-06-22T14:30:07;4.18;;;3.78;;
15764;SDS011;7983;50.744;7.086;2023-06-22T14:32:35;5.40;;;4.90;;
15764;SDS011;7983;50.744;7.086;2023-06-22T14:35:01;5.70;;;4.55;;
15764;SDS011;7983;50.744;7.086;2023-06-22T14:37:26;4.57;;;4.18;;
15764;SDS011;7983;50.744;7.086;2023-06-22T14:39:52;5.57;;;4.32;;
15764;SDS011;7983;50.744;7.086;2023-06-22T14:42:17;6.30;;;5.07;;
15764;SDS011;7983;50.744;7.086;2023-06-22T14:44:43;8.75;;;7.22;;
15764;SDS011;7983;50.744;7.086;2023-06-22T14:47:09;7.80;;;6.60;;
15764;SDS011;7983;50.744;7.086;2023-06-22T14:49:35;6.35;;;5.65;;
15764;SDS011;7983;50.744;7.086;2023-06-22T14:52:01;7.82;;;5.50;;
15764;SDS011;7983;50.744;7.086;2023-06-22T14:54:27;6.28;;;5.38;;
15764;SDS011;7983;50.744;7.086;2023-06-22T14:56:53;8.38;;;4.80;;
15764;SDS011;7983;50.744;7.086;2023-06-22T14:59:21;6.47;;;5.20;;
15764;SDS011;7983;50.744;7.086;2023-06-22T15:01:49;7.07;;;5.35;;
15764;SDS011;7983;50.744;7.086;2023-06-22T15:04:16;6.75;;;5.90;;
15764;SDS011;7983;50.744;7.086;2023-06-22T15:06:42;7.03;;;5.68;;
15764;SDS011;7983;50.744;7.086;2023-06-22T15:09:10;6.97;;;5.03;;
15764;SDS011;7983;50.744;7.086;2023-06-22T15:11:35;6.32;;;4.82;;